sensor_id;sensor_type;location;lat;lon;timestamp;temperature;humidity
59303;DHT22;45074;52.764;6.896;2023-02-15T00:02:57;2.70;99.90
59303;DHT22;45074;52.764;6.896;2023-02-15T00:20:00;2.10;99.90
59303;DHT22;45074;52.764;6.896;2023-02-15T00:46:46;1.10;99.90
59303;DHT22;45074;52.764;6.896;2023-02-15T00:51:39;2.20;99.90
59303;DHT22;45074;52.764;6.896;2023-02-15T01:03:51;3.10;99.90
59303;DHT22;45074;52.764;6.896;2023-02-15T01:08:44;1.60;99.90
59303;DHT22;45074;52.764;6.896;2023-02-15T01:11:15;2.00;99.90
59303;DHT22;45074;52.764;6.896;2023-02-15T01:13:51;2.00;99.90
59303;DHT22;45074;52.764;6.896;2023-02-15T01:21:14;1.90;99.90
59303;DHT22;45074;52.764;6.896;2023-02-15T01:23:41;1.90;99.90
59303;DHT22;45074;52.764;6.896;2023-02-15T01:26:08;1.90;99.90
59303;DHT22;45074;52.764;6.896;2023-02-15T01:28:35;2.60;99.90
59303;DHT22;45074;52.764;6.896;2023-02-15T01:31:08;1.80;99.90
59303;DHT22;45074;52.764;6.896;2023-02-15T01:33:35;2.10;99.90
59303;DHT22;45074;52.764;6.896;2023-02-15T01:38:27;2.10;99.90
59303;DHT22;45074;52.764;6.896;2023-02-15T01:43:45;1.70;99.90
59303;DHT22;45074;52.764;6.896;2023-02-15T01:46:13;1.70;99.90
59303;DHT22;45074;52.764;6.896;2023-02-15T01:48:54;1.70;99.90
59303;DHT22;45074;52.764;6.896;2023-02-15T01:51:23;1.70;99.90
59303;DHT22;45074;52.764;6.896;2023-02-15T01:53:54;1.70;99.90
59303;DHT22;45074;52.764;6.896;2023-02-15T01:56:27;1.70;99.90
59303;DHT22;45074;52.764;6.896;2023-02-15T01:58:57;1.20;99.90
59303;DHT22;45074;52.764;6.896;2023-02-15T02:01:25;1.40;99.90
59303;DHT22;45074;52.764;6.896;2023-02-15T02:04:04;1.60;99.90
59303;DHT22;45074;52.764;6.896;2023-02-15T02:06:35;1.50;99.90
59303;DHT22;45074;52.764;6.896;2023-02-15T02:09:02;0.80;99.90
59303;DHT22;45074;52.764;6.896;2023-02-15T02:13:55;1.50;99.90
59303;DHT22;45074;52.764;6.896;2023-02-15T02:33:20;1.40;99.90
59303;DHT22;45074;52.764;6.896;2023-02-15T02:41:28;1.30;99.90
59303;DHT22;45074;52.764;6.896;2023-02-15T02:44:07;1.20;99.90
59303;DHT22;45074;52.764;6.896;2023-02-15T02:46:57;1.30;99.90
59303;DHT22;45074;52.764;6.896;2023-02-15T02:49:37;3.10;99.90
59303;DHT22;45074;52.764;6.896;2023-02-15T02:52:06;1.20;99.90
59303;DHT22;45074;52.764;6.896;2023-02-15T02:54:34;1.20;99.90
59303;DHT22;45074;52.764;6.896;2023-02-15T02:57:04;1.10;99.90
59303;DHT22;45074;52.764;6.896;2023-02-15T02:59:34;1.10;99.90
59303;DHT22;45074;52.764;6.896;2023-02-15T03:02:05;1.20;99.90
59303;DHT22;45074;52.764;6.896;2023-02-15T03:04:37;1.10;99.90
59303;DHT22;45074;52.764;6.896;2023-02-15T03:07:08;0.90;99.90
59303;DHT22;45074;52.764;6.896;2023-02-15T03:09:42;1.00;99.90
59303;DHT22;45074;52.764;6.896;2023-02-15T03:12:21;1.10;99.90
59303;DHT22;45074;52.764;6.896;2023-02-15T03:14:52;-0.20;99.90
59303;DHT22;45074;52.764;6.896;2023-02-15T03:17:20;-1.70;99.90
59303;DHT22;45074;52.764;6.896;2023-02-15T03:19:49;0.90;99.90
59303;DHT22;45074;52.764;6.896;2023-02-15T03:22:21;-0.10;99.90
59303;DHT22;45074;52.764;6.896;2023-02-15T03:24:59;0.90;99.90
59303;DHT22;45074;52.764;6.896;2023-02-15T03:27:32;0.90;99.90
59303;DHT22;45074;52.764;6.896;2023-02-15T03:30:00;0.90;99.90
59303;DHT22;45074;52.764;6.896;2023-02-15T03:32:29;0.80;99.90
59303;DHT22;45074;52.764;6.896;2023-02-15T03:39:59;0.80;99.90
59303;DHT22;45074;52.764;6.896;2023-02-15T03:42:50;0.80;99.90
59303;DHT22;45074;52.764;6.896;2023-02-15T03:45:20;0.70;99.90
59303;DHT22;45074;52.764;6.896;2023-02-15T03:47:49;0.30;99.90
59303;DHT22;45074;52.764;6.896;2023-02-15T03:50:20;0.80;99.90
59303;DHT22;45074;52.764;6.896;2023-02-15T03:53:08;0.80;99.90
59303;DHT22;45074;52.764;6.896;2023-02-15T03:55:35;0.80;99.90
59303;DHT22;45074;52.764;6.896;2023-02-15T04:01:00;0.80;99.90
59303;DHT22;45074;52.764;6.896;2023-02-15T04:04:21;0.00;99.90
59303;DHT22;45074;52.764;6.896;2023-02-15T04:09:05;0.80;99.90
59303;DHT22;45074;52.764;6.896;2023-02-15T04:30:05;0.20;99.90
59303;DHT22;45074;52.764;6.896;2023-02-15T05:13:54;1.80;99.90
59303;DHT22;45074;52.764;6.896;2023-02-15T05:23:39;0.50;99.90
59303;DHT22;45074;52.764;6.896;2023-02-15T05:31:18;0.40;99.90
59303;DHT22;45074;52.764;6.896;2023-02-15T05:33:44;0.00;99.90
59303;DHT22;45074;52.764;6.896;2023-02-15T05:41:04;0.40;99.90
59303;DHT22;45074;52.764;6.896;2023-02-15T05:43:30;0.40;99.90
59303;DHT22;45074;52.764;6.896;2023-02-15T05:48:24;0.40;99.90
59303;DHT22;45074;52.764;6.896;2023-02-15T05:51:01;0.40;99.90
59303;DHT22;45074;52.764;6.896;2023-02-15T05:53:29;0.40;99.90
59303;DHT22;45074;52.764;6.896;2023-02-15T05:58:28;0.90;99.90
59303;DHT22;45074;52.764;6.896;2023-02-15T06:13:06;0.20;99.90
59303;DHT22;45074;52.764;6.896;2023-02-15T06:30:09;0.10;99.90
59303;DHT22;45074;52.764;6.896;2023-02-15T06:42:21;0.10;99.90
59303;DHT22;45074;52.764;6.896;2023-02-15T06:47:13;0.10;99.90
59303;DHT22;45074;52.764;6.896;2023-02-15T06:52:05;0.10;99.90
59303;DHT22;45074;52.764;6.896;2023-02-15T06:56:57;0.10;99.90
59303;DHT22;45074;52.764;6.896;2023-02-15T07:21:36;0.30;99.90
59303;DHT22;45074;52.764;6.896;2023-02-15T07:24:02;0.30;99.90
59303;DHT22;45074;52.764;6.896;2023-02-15T07:38:41;0.40;99.90
59303;DHT22;45074;52.764;6.896;2023-02-15T07:41:11;-0.70;99.90
59303;DHT22;45074;52.764;6.896;2023-02-15T07:43:39;0.50;99.90
59303;DHT22;45074;52.764;6.896;2023-02-15T07:46:07;0.50;99.90
59303;DHT22;45074;52.764;6.896;2023-02-15T07:48:35;0.60;99.90
59303;DHT22;45074;52.764;6.896;2023-02-15T07:51:02;0.70;99.90
59303;DHT22;45074;52.764;6.896;2023-02-15T07:55:58;0.80;99.90
59303;DHT22;45074;52.764;6.896;2023-02-15T08:13:56;1.10;99.90
59303;DHT22;45074;52.764;6.896;2023-02-15T08:16:48;1.20;99.90
59303;DHT22;45074;52.764;6.896;2023-02-15T08:19:26;1.20;99.90
59303;DHT22;45074;52.764;6.896;2023-02-15T08:21:58;1.30;99.90
59303;DHT22;45074;52.764;6.896;2023-02-15T08:24:25;1.30;99.90
59303;DHT22;45074;52.764;6.896;2023-02-15T08:26:51;1.40;99.90
59303;DHT22;45074;52.764;6.896;2023-02-15T08:29:19;3.60;99.90
59303;DHT22;45074;52.764;6.896;2023-02-15T08:34:19;2.00;99.90
59303;DHT22;45074;52.764;6.896;2023-02-15T08:39:11;3.10;99.90
59303;DHT22;45074;52.764;6.896;2023-02-15T08:41:38;2.20;99.90
59303;DHT22;45074;52.764;6.896;2023-02-15T08:44:06;2.40;99.90
59303;DHT22;45074;52.764;6.896;2023-02-15T08:46:35;2.50;99.90
59303;DHT22;45074;52.764;6.896;2023-02-15T08:49:01;2.70;99.90
59303;DHT22;45074;52.764;6.896;2023-02-15T08:51:30;1.10;99.90
59303;DHT22;45074;52.764;6.896;2023-02-15T08:53:57;2.90;99.90
59303;DHT22;45074;52.764;6.896;2023-02-15T08:56:26;3.00;99.90
59303;DHT22;45074;52.764;6.896;2023-02-15T08:58:53;3.00;99.90
59303;DHT22;45074;52.764;6.896;2023-02-15T09:01:22;3.20;99.90
59303;DHT22;45074;52.764;6.896;2023-02-15T09:03:49;2.60;99.90
59303;DHT22;45074;52.764;6.896;2023-02-15T09:06:19;3.40;99.90
59303;DHT22;45074;52.764;6.896;2023-02-15T09:11:17;3.40;99.90
59303;DHT22;45074;52.764;6.896;2023-02-15T09:13:48;3.40;99.90
59303;DHT22;45074;52.764;6.896;2023-02-15T09:21:14;4.00;99.90
59303;DHT22;45074;52.764;6.896;2023-02-15T09:23:41;3.90;99.90
59303;DHT22;45074;52.764;6.896;2023-02-15T09:26:10;3.80;99.90
59303;DHT22;45074;52.764;6.896;2023-02-15T09:28:36;4.10;99.90
59303;DHT22;45074;52.764;6.896;2023-02-15T09:31:11;4.20;99.90
59303;DHT22;45074;52.764;6.896;2023-02-15T09:33:38;4.30;99.90
59303;DHT22;45074;52.764;6.896;2023-02-15T09:36:05;4.40;99.90
59303;DHT22;45074;52.764;6.896;2023-02-15T09:43:50;4.70;99.90
59303;DHT22;45074;52.764;6.896;2023-02-15T09:46:50;4.90;99.90
59303;DHT22;45074;52.764;6.896;2023-02-15T09:54:56;5.20;99.90
59303;DHT22;45074;52.764;6.896;2023-02-15T10:00:35;4.00;99.90
59303;DHT22;45074;52.764;6.896;2023-02-15T10:03:42;5.70;99.90
59303;DHT22;45074;52.764;6.896;2023-02-15T10:11:47;6.20;99.90
59303;DHT22;45074;52.764;6.896;2023-02-15T10:17:04;6.40;99.90
59303;DHT22;45074;52.764;6.896;2023-02-15T10:25:30;6.70;99.90
59303;DHT22;45074;52.764;6.896;2023-02-15T10:28:05;6.70;99.90
59303;DHT22;45074;52.764;6.896;2023-02-15T10:33:02;6.80;99.90
59303;DHT22;45074;52.764;6.896;2023-02-15T10:38:28;7.00;99.90
59303;DHT22;45074;52.764;6.896;2023-02-15T10:58:03;9.20;99.90
59303;DHT22;45074;52.764;6.896;2023-02-15T11:00:54;7.40;99.90
59303;DHT22;45074;52.764;6.896;2023-02-15T11:06:09;7.60;99.90
59303;DHT22;45074;52.764;6.896;2023-02-15T11:08:50;7.70;99.90
59303;DHT22;45074;52.764;6.896;2023-02-15T11:11:24;7.80;99.90
59303;DHT22;45074;52.764;6.896;2023-02-15T11:14:00;7.90;99.90
59303;DHT22;45074;52.764;6.896;2023-02-15T11:16:37;8.00;99.90
59303;DHT22;45074;52.764;6.896;2023-02-15T11:19:11;8.10;99.90
59303;DHT22;45074;52.764;6.896;2023-02-15T11:21:50;8.20;99.90
59303;DHT22;45074;52.764;6.896;2023-02-15T11:24:19;8.30;99.90
59303;DHT22;45074;52.764;6.896;2023-02-15T11:29:22;8.60;99.90
59303;DHT22;45074;52.764;6.896;2023-02-15T11:31:58;8.80;99.90
59303;DHT22;45074;52.764;6.896;2023-02-15T11:34:45;8.70;99.90
59303;DHT22;45074;52.764;6.896;2023-02-15T11:37:17;8.80;99.90
59303;DHT22;45074;52.764;6.896;2023-02-15T11:42:14;9.00;99.90
59303;DHT22;45074;52.764;6.896;2023-02-15T11:52:17;9.80;99.90
59303;DHT22;45074;52.764;6.896;2023-02-15T11:54:47;9.50;99.90
59303;DHT22;45074;52.764;6.896;2023-02-15T11:59:47;9.70;99.90
59303;DHT22;45074;52.764;6.896;2023-02-15T12:02:17;10.00;99.90
59303;DHT22;45074;52.764;6.896;2023-02-15T12:04:49;10.10;99.90
59303;DHT22;45074;52.764;6.896;2023-02-15T12:07:34;10.50;99.90
59303;DHT22;45074;52.764;6.896;2023-02-15T12:10:27;11.90;99.90
59303;DHT22;45074;52.764;6.896;2023-02-15T12:13:14;12.60;99.90
59303;DHT22;45074;52.764;6.896;2023-02-15T12:15:49;11.40;99.90
59303;DHT22;45074;52.764;6.896;2023-02-15T12:18:35;11.80;99.90
59303;DHT22;45074;52.764;6.896;2023-02-15T12:21:05;12.20;99.90
59303;DHT22;45074;52.764;6.896;2023-02-15T12:23:32;12.10;99.90
59303;DHT22;45074;52.764;6.896;2023-02-15T12:25:59;12.10;99.90
59303;DHT22;45074;52.764;6.896;2023-02-15T12:34:00;13.50;99.90
59303;DHT22;45074;52.764;6.896;2023-02-15T12:36:33;14.10;99.90
59303;DHT22;45074;52.764;6.896;2023-02-15T12:39:18;14.10;99.90
59303;DHT22;45074;52.764;6.896;2023-02-15T12:42:14;14.20;99.90
59303;DHT22;45074;52.764;6.896;2023-02-15T12:47:19;14.80;99.90
59303;DHT22;45074;52.764;6.896;2023-02-15T12:50:13;15.10;99.90
59303;DHT22;45074;52.764;6.896;2023-02-15T12:52:48;15.00;99.90
59303;DHT22;45074;52.764;6.896;2023-02-15T12:55:18;14.50;99.90
59303;DHT22;45074;52.764;6.896;2023-02-15T13:02:48;13.30;99.90
59303;DHT22;45074;52.764;6.896;2023-02-15T13:05:37;13.40;99.90
59303;DHT22;45074;52.764;6.896;2023-02-15T13:08:22;13.70;99.90
59303;DHT22;45074;52.764;6.896;2023-02-15T13:11:00;14.20;99.90
59303;DHT22;45074;52.764;6.896;2023-02-15T13:13:35;14.60;99.90
59303;DHT22;45074;52.764;6.896;2023-02-15T13:16:11;14.90;99.90
59303;DHT22;45074;52.764;6.896;2023-02-15T13:23:38;14.90;99.90
59303;DHT22;45074;52.764;6.896;2023-02-15T13:26:11;15.00;99.90
59303;DHT22;45074;52.764;6.896;2023-02-15T13:28:48;15.10;99.90
59303;DHT22;45074;52.764;6.896;2023-02-15T13:31:19;15.10;99.90
59303;DHT22;45074;52.764;6.896;2023-02-15T13:33:54;14.90;99.90
59303;DHT22;45074;52.764;6.896;2023-02-15T13:50:16;14.00;99.90
59303;DHT22;45074;52.764;6.896;2023-02-15T13:52:56;14.20;99.90
59303;DHT22;45074;52.764;6.896;2023-02-15T14:12:28;15.30;99.90
59303;DHT22;45074;52.764;6.896;2023-02-15T14:20:47;14.60;99.90
59303;DHT22;45074;52.764;6.896;2023-02-15T14:31:39;14.20;99.90
59303;DHT22;45074;52.764;6.896;2023-02-15T14:34:07;14.20;99.90
59303;DHT22;45074;52.764;6.896;2023-02-15T14:39:28;13.20;99.90
59303;DHT22;45074;52.764;6.896;2023-02-15T14:42:34;12.50;99.90
59303;DHT22;45074;52.764;6.896;2023-02-15T14:45:13;12.90;99.90
59303;DHT22;45074;52.764;6.896;2023-02-15T14:47:52;12.80;99.90
59303;DHT22;45074;52.764;6.896;2023-02-15T14:56:16;12.90;99.90
59303;DHT22;45074;52.764;6.896;2023-02-15T15:01:30;12.10;99.90
59303;DHT22;45074;52.764;6.896;2023-02-15T15:04:09;12.40;99.90
59303;DHT22;45074;52.764;6.896;2023-02-15T15:06:38;12.10;99.90
59303;DHT22;45074;52.764;6.896;2023-02-15T15:09:26;12.20;99.90
59303;DHT22;45074;52.764;6.896;2023-02-15T15:11:54;12.10;99.90
59303;DHT22;45074;52.764;6.896;2023-02-15T15:14:41;12.10;99.90
59303;DHT22;45074;52.764;6.896;2023-02-15T15:17:10;12.10;99.90
59303;DHT22;45074;52.764;6.896;2023-02-15T15:22:25;11.90;99.90
59303;DHT22;45074;52.764;6.896;2023-02-15T15:24:56;11.90;99.90
59303;DHT22;45074;52.764;6.896;2023-02-15T15:33:25;11.80;99.90
59303;DHT22;45074;52.764;6.896;2023-02-15T15:42:12;11.50;99.90
59303;DHT22;45074;52.764;6.896;2023-02-15T15:50:39;11.20;99.90
59303;DHT22;45074;52.764;6.896;2023-02-15T15:53:06;11.30;99.90
59303;DHT22;45074;52.764;6.896;2023-02-15T15:55:41;11.20;99.90
59303;DHT22;45074;52.764;6.896;2023-02-15T16:10:27;10.90;99.90
59303;DHT22;45074;52.764;6.896;2023-02-15T16:12:54;10.90;99.90
59303;DHT22;45074;52.764;6.896;2023-02-15T16:15:42;10.80;99.90
59303;DHT22;45074;52.764;6.896;2023-02-15T16:18:15;10.60;99.90
59303;DHT22;45074;52.764;6.896;2023-02-15T16:28:13;12.90;99.90
59303;DHT22;45074;52.764;6.896;2023-02-15T16:30:39;10.70;99.90
59303;DHT22;45074;52.764;6.896;2023-02-15T16:33:16;10.30;99.90
59303;DHT22;45074;52.764;6.896;2023-02-15T16:36:02;10.20;99.90
59303;DHT22;45074;52.764;6.896;2023-02-15T16:41:09;10.10;99.90
59303;DHT22;45074;52.764;6.896;2023-02-15T16:43:37;10.00;99.90
59303;DHT22;45074;52.764;6.896;2023-02-15T16:46:27;10.00;99.90
59303;DHT22;45074;52.764;6.896;2023-02-15T16:48:56;9.90;99.90
59303;DHT22;45074;52.764;6.896;2023-02-15T16:51:24;9.80;99.90
59303;DHT22;45074;52.764;6.896;2023-02-15T16:53:52;9.80;99.90
59303;DHT22;45074;52.764;6.896;2023-02-15T16:56:26;8.10;99.90
59303;DHT22;45074;52.764;6.896;2023-02-15T16:58:54;9.70;99.90
59303;DHT22;45074;52.764;6.896;2023-02-15T17:01:22;10.10;99.90
59303;DHT22;45074;52.764;6.896;2023-02-15T17:03:51;9.60;99.90
59303;DHT22;45074;52.764;6.896;2023-02-15T17:06:24;9.60;99.90
59303;DHT22;45074;52.764;6.896;2023-02-15T17:11:22;9.50;99.90
59303;DHT22;45074;52.764;6.896;2023-02-15T17:16:44;9.40;99.90
59303;DHT22;45074;52.764;6.896;2023-02-15T17:19:32;9.30;99.90
59303;DHT22;45074;52.764;6.896;2023-02-15T17:22:01;9.20;99.90
59303;DHT22;45074;52.764;6.896;2023-02-15T17:24:38;9.20;99.90
59303;DHT22;45074;52.764;6.896;2023-02-15T17:27:18;9.10;99.90
59303;DHT22;45074;52.764;6.896;2023-02-15T17:29:51;9.30;99.90
59303;DHT22;45074;52.764;6.896;2023-02-15T17:32:23;9.10;99.90
59303;DHT22;45074;52.764;6.896;2023-02-15T17:35:08;8.60;99.90
59303;DHT22;45074;52.764;6.896;2023-02-15T17:37:44;8.90;99.90
59303;DHT22;45074;52.764;6.896;2023-02-15T17:40:20;8.90;99.90
59303;DHT22;45074;52.764;6.896;2023-02-15T17:50:06;7.50;99.90
59303;DHT22;45074;52.764;6.896;2023-02-15T17:55:01;8.60;99.90
59303;DHT22;45074;52.764;6.896;2023-02-15T18:16:30;8.40;99.90
59303;DHT22;45074;52.764;6.896;2023-02-15T18:26:19;8.20;99.90
59303;DHT22;45074;52.764;6.896;2023-02-15T18:33:52;8.20;99.90
59303;DHT22;45074;52.764;6.896;2023-02-15T18:36:29;8.20;99.90
59303;DHT22;45074;52.764;6.896;2023-02-15T18:38:58;8.20;99.90
59303;DHT22;45074;52.764;6.896;2023-02-15T18:46:18;8.00;99.90
59303;DHT22;45074;52.764;6.896;2023-02-15T18:51:21;7.40;99.90
59303;DHT22;45074;52.764;6.896;2023-02-15T18:53:50;8.00;99.90
59303;DHT22;45074;52.764;6.896;2023-02-15T18:56:19;7.90;99.90
59303;DHT22;45074;52.764;6.896;2023-02-15T18:58:46;7.90;99.90
59303;DHT22;45074;52.764;6.896;2023-02-15T19:01:21;7.90;99.90
59303;DHT22;45074;52.764;6.896;2023-02-15T19:03:48;8.00;99.90
59303;DHT22;45074;52.764;6.896;2023-02-15T19:06:17;7.90;99.90
59303;DHT22;45074;52.764;6.896;2023-02-15T19:08:44;7.90;99.90
59303;DHT22;45074;52.764;6.896;2023-02-15T19:11:22;7.90;99.90
59303;DHT22;45074;52.764;6.896;2023-02-15T19:13:50;7.90;99.90
59303;DHT22;45074;52.764;6.896;2023-02-15T19:16:33;7.90;99.90
59303;DHT22;45074;52.764;6.896;2023-02-15T19:21:27;7.80;99.90
59303;DHT22;45074;52.764;6.896;2023-02-15T19:24:02;7.80;99.90
59303;DHT22;45074;52.764;6.896;2023-02-15T19:26:30;7.80;99.90
59303;DHT22;45074;52.764;6.896;2023-02-15T19:29:00;7.80;99.90
59303;DHT22;45074;52.764;6.896;2023-02-15T19:38:50;7.70;99.90
59303;DHT22;45074;52.764;6.896;2023-02-15T19:41:29;7.70;99.90
59303;DHT22;45074;52.764;6.896;2023-02-15T19:43:57;7.70;99.90
59303;DHT22;45074;52.764;6.896;2023-02-15T19:48:51;7.70;99.90
59303;DHT22;45074;52.764;6.896;2023-02-15T19:51:17;7.70;99.90
59303;DHT22;45074;52.764;6.896;2023-02-15T19:53:46;7.60;99.90
59303;DHT22;45074;52.764;6.896;2023-02-15T19:56:17;7.70;99.90
59303;DHT22;45074;52.764;6.896;2023-02-15T20:06:03;7.20;99.90
59303;DHT22;45074;52.764;6.896;2023-02-15T20:08:30;7.60;99.90
59303;DHT22;45074;52.764;6.896;2023-02-15T20:10:57;7.50;99.90
59303;DHT22;45074;52.764;6.896;2023-02-15T20:20:47;7.30;99.90
59303;DHT22;45074;52.764;6.896;2023-02-15T20:23:20;7.30;99.90
59303;DHT22;45074;52.764;6.896;2023-02-15T20:25:48;7.30;99.90
59303;DHT22;45074;52.764;6.896;2023-02-15T20:28:15;7.30;99.90
59303;DHT22;45074;52.764;6.896;2023-02-15T20:38:01;6.40;99.90
59303;DHT22;45074;52.764;6.896;2023-02-15T20:40:33;7.20;99.90
59303;DHT22;45074;52.764;6.896;2023-02-15T20:42:59;9.00;99.90
59303;DHT22;45074;52.764;6.896;2023-02-15T20:45:30;7.20;99.90
59303;DHT22;45074;52.764;6.896;2023-02-15T20:50:25;7.10;99.90
59303;DHT22;45074;52.764;6.896;2023-02-15T20:52:54;7.00;99.90
59303;DHT22;45074;52.764;6.896;2023-02-15T20:55:22;7.00;99.90
59303;DHT22;45074;52.764;6.896;2023-02-15T20:57:49;7.00;99.90
59303;DHT22;45074;52.764;6.896;2023-02-15T21:00:20;6.90;99.90
59303;DHT22;45074;52.764;6.896;2023-02-15T21:02:47;6.90;99.90
59303;DHT22;45074;52.764;6.896;2023-02-15T21:05:22;6.80;99.90
59303;DHT22;45074;52.764;6.896;2023-02-15T21:07:49;6.80;99.90
59303;DHT22;45074;52.764;6.896;2023-02-15T21:10:19;6.70;99.90
59303;DHT22;45074;52.764;6.896;2023-02-15T21:12:45;6.70;99.90
59303;DHT22;45074;52.764;6.896;2023-02-15T21:15:36;6.10;99.90
59303;DHT22;45074;52.764;6.896;2023-02-15T21:18:06;6.70;99.90
59303;DHT22;45074;52.764;6.896;2023-02-15T21:20:33;6.60;99.90
59303;DHT22;45074;52.764;6.896;2023-02-15T21:23:02;6.90;99.90
59303;DHT22;45074;52.764;6.896;2023-02-15T21:25:34;6.60;99.90
59303;DHT22;45074;52.764;6.896;2023-02-15T21:28:01;6.60;99.90
59303;DHT22;45074;52.764;6.896;2023-02-15T21:30:27;6.90;99.90
59303;DHT22;45074;52.764;6.896;2023-02-15T21:35:19;6.60;99.90
59303;DHT22;45074;52.764;6.896;2023-02-15T21:37:48;6.60;99.90
59303;DHT22;45074;52.764;6.896;2023-02-15T21:40:24;6.60;99.90
59303;DHT22;45074;52.764;6.896;2023-02-15T21:42:50;6.40;99.90
59303;DHT22;45074;52.764;6.896;2023-02-15T21:53:43;7.40;99.90
59303;DHT22;45074;52.764;6.896;2023-02-15T21:56:13;6.60;99.90
59303;DHT22;45074;52.764;6.896;2023-02-15T22:03:34;6.60;99.90
59303;DHT22;45074;52.764;6.896;2023-02-15T22:10:54;6.70;99.90
59303;DHT22;45074;52.764;6.896;2023-02-15T22:13:31;6.60;99.90
59303;DHT22;45074;52.764;6.896;2023-02-15T22:18:27;6.70;99.90
59303;DHT22;45074;52.764;6.896;2023-02-15T22:20:54;6.70;99.90
59303;DHT22;45074;52.764;6.896;2023-02-15T22:25:52;6.70;99.90
59303;DHT22;45074;52.764;6.896;2023-02-15T22:28:25;5.60;99.90
59303;DHT22;45074;52.764;6.896;2023-02-15T22:33:27;6.80;99.90
59303;DHT22;45074;52.764;6.896;2023-02-15T22:40:47;6.70;99.90
59303;DHT22;45074;52.764;6.896;2023-02-15T22:43:36;6.70;99.90
59303;DHT22;45074;52.764;6.896;2023-02-15T22:46:06;6.60;99.90
59303;DHT22;45074;52.764;6.896;2023-02-15T22:53:24;5.60;99.90
59303;DHT22;45074;52.764;6.896;2023-02-15T22:55:51;6.50;99.90
59303;DHT22;45074;52.764;6.896;2023-02-15T22:58:21;6.50;99.90
59303;DHT22;45074;52.764;6.896;2023-02-15T23:13:29;6.40;99.90
59303;DHT22;45074;52.764;6.896;2023-02-15T23:16:00;6.40;99.90
59303;DHT22;45074;52.764;6.896;2023-02-15T23:18:37;6.40;99.90
59303;DHT22;45074;52.764;6.896;2023-02-15T23:21:25;6.30;99.90
59303;DHT22;45074;52.764;6.896;2023-02-15T23:23:54;6.30;99.90
59303;DHT22;45074;52.764;6.896;2023-02-15T23:26:23;6.20;99.90
59303;DHT22;45074;52.764;6.896;2023-02-15T23:28:50;6.20;99.90
59303;DHT22;45074;52.764;6.896;2023-02-15T23:36:37;6.10;99.90
59303;DHT22;45074;52.764;6.896;2023-02-15T23:39:16;6.10;99.90
59303;DHT22;45074;52.764;6.896;2023-02-15T23:42:02;6.00;99.90
59303;DHT22;45074;52.764;6.896;2023-02-15T23:46:56;6.00;99.90
59303;DHT22;45074;52.764;6.896;2023-02-15T23:49:23;5.70;99.90
59303;DHT22;45074;52.764;6.896;2023-02-15T23:51:51;6.00;99.90
59303;DHT22;45074;52.764;6.896;2023-02-15T23:54:19;6.00;99.90
59303;DHT22;45074;52.764;6.896;2023-02-15T23:56:49;5.80;99.90
59303;DHT22;45074;52.764;6.896;2023-02-15T23:59:24;5.80;99.90
